| time (UTC) | temp F | wind direction | speed knots | gust knots | rain 1hr in | rain 24hr in | rain mn in | humidity % | barometer mb |
| 20260507051502 | 45 | 159 | 0.0 | 0.0 | 0.00 | 0.13 | 0.09 | 96 | 1013.3 |
| 20260507050111 | 44 | 159 | 0.0 | 0.0 | 0.00 | 0.13 | 0.09 | 95 | 1013.1 |
| 20260507044600 | 44 | 159 | 0.0 | 0.0 | 0.00 | 0.51 | 0.09 | 95 | 1013.0 |
| 20260507043058 | 44 | 159 | 0.0 | 0.0 | 0.00 | 0.51 | 0.09 | 95 | 1012.9 |
| 20260507041557 | 44 | 159 | 0.0 | 0.0 | 0.00 | 0.51 | 0.09 | 95 | 1013.0 |
| 20260507040103 | 44 | 159 | 0.0 | 0.0 | 0.00 | 0.51 | 0.09 | 94 | 1012.9 |
| 20260507034559 | 44 | 159 | 0.0 | 1.7 | 0.00 | 0.56 | 0.09 | 95 | 1013.0 |
| 20260507033053 | 45 | 159 | 0.9 | 2.6 | 0.00 | 0.56 | 0.09 | 94 | 1012.9 |
| 20260507031555 | 46 | 159 | 0.0 | 2.6 | 0.00 | 0.56 | 0.09 | 95 | 1012.9 |
| 20260507030051 | 45 | 166 | 0.9 | 2.6 | 0.00 | 0.56 | 0.09 | 95 | 1012.8 |
| 20260507024550 | 45 | 166 | 0.0 | 0.0 | 0.00 | 0.67 | 0.09 | 94 | 1012.9 |
| 20260507023050 | 45 | 166 | 0.0 | 1.7 | 0.00 | 0.67 | 0.09 | 94 | 1012.8 |
| 20260507021558 | 45 | 217 | 0.0 | 1.7 | 0.00 | 0.67 | 0.09 | 95 | 1012.9 |
| 20260507020049 | 45 | 215 | 0.9 | 2.6 | 0.00 | 0.67 | 0.09 | 93 | 1012.8 |
| 20260507014548 | 45 | 215 | 0.9 | 1.7 | 0.00 | 0.70 | 0.09 | 94 | 1012.8 |
| 20260507013048 | 45 | 215 | 1.7 | 3.5 | 0.00 | 0.70 | 0.09 | 94 | 1012.7 |
| 20260507011549 | 45 | 163 | 0.0 | 2.6 | 0.00 | 0.70 | 0.09 | 93 | 1012.6 |
| 20260507010045 | 46 | 163 | 0.0 | 1.7 | 0.00 | 0.70 | 0.09 | 93 | 1012.5 |
| 20260507004540 | 46 | 163 | 0.9 | 2.6 | 0.00 | 0.87 | 0.09 | 93 | 1012.5 |
| 20260507003038 | 47 | 163 | 0.0 | 1.7 | 0.00 | 0.87 | 0.09 | 93 | 1012.5 |
| 20260507001537 | 47 | 163 | 0.9 | 4.3 | 0.00 | 0.87 | 0.09 | 93 | 1012.5 |
| 20260507000037 | 47 | 241 | 0.0 | 2.6 | 0.00 | 0.87 | 0.09 | 92 | 1012.6 |
| 20260506234538 | 48 | 225 | 1.7 | 3.5 | 0.00 | 0.91 | 0.09 | 92 | 1012.6 |
| 20260506233031 | 49 | 180 | 0.0 | 1.7 | 0.02 | 0.91 | 0.09 | 92 | 1012.6 |
| 20260506231529 | 50 | 247 | 0.0 | 2.6 | 0.03 | 0.91 | 0.09 | 91 | 1012.6 |
| 20260506230026 | 50 | 213 | 0.0 | 3.5 | 0.09 | 0.91 | 0.09 | 92 | 1012.5 |
| 20260506224526 | 50 | 169 | 0.9 | 2.6 | 0.11 | 0.91 | 0.08 | 93 | 1012.6 |
| 20260506223023 | 50 | 169 | 1.7 | 3.5 | 0.10 | 0.90 | 0.07 | 92 | 1012.9 |
| 20260506221522 | 50 | 213 | 0.0 | 2.6 | 0.08 | 0.87 | 0.05 | 90 | 1013.0 |
| 20260506220025 | 52 | 231 | 1.7 | 4.3 | 0.03 | 0.83 | 0.00 | 87 | 1012.8 |
| 20260506214516 | 52 | 194 | 0.9 | 2.6 | 0.00 | 0.81 | 0.80 | 91 | 1012.6 |
| 20260506213018 | 51 | 165 | 0.0 | 2.6 | 0.00 | 0.81 | 0.80 | 92 | 1012.4 |
| 20260506211512 | 50 | 142 | 0.0 | 2.6 | 0.00 | 0.81 | 0.80 | 91 | 1012.1 |
| 20260506210009 | 50 | 142 | 0.0 | 2.6 | 0.00 | 0.81 | 0.80 | 92 | 1011.8 |
| 20260506204509 | 50 | 142 | 0.9 | 2.6 | 0.00 | 0.81 | 0.80 | 91 | 1011.7 |
| 20260506203019 | 50 | 142 | 0.0 | 1.7 | 0.00 | 0.81 | 0.80 | 92 | 1011.6 |
| 20260506201510 | 50 | 142 | 0.9 | 2.6 | 0.00 | 0.81 | 0.80 | 91 | 1011.7 |
| 20260506200006 | 50 | 142 | 0.0 | 2.6 | 0.00 | 0.82 | 0.80 | 92 | 1011.6 |
| 20260506194502 | 51 | 142 | 0.0 | 1.7 | 0.00 | 0.82 | 0.80 | 91 | 1011.4 |
| 20260506193103 | 52 | 159 | 0.0 | 3.5 | 0.00 | 0.82 | 0.80 | 91 | 1011.1 |
| 20260506191504 | 52 | 218 | 0.0 | 0.0 | 0.00 | 0.82 | 0.80 | 91 | 1010.9 |
| 20260506184611 | 54 | 217 | 1.7 | 3.5 | 0.00 | 0.82 | 0.80 | 89 | 1010.3 |
| 20260506183002 | 55 | 14 | 0.0 | 0.0 | 0.00 | 0.82 | 0.80 | 88 | 1010.4 |
| 20260506181602 | 55 | 14 | 0.0 | 0.9 | 0.00 | 0.82 | 0.80 | 88 | 1010.2 |
| 20260506180006 | 55 | 14 | 0.0 | 4.3 | 0.00 | 0.82 | 0.80 | 87 | 1010.0 |
| 20260506174502 | 56 | 25 | 0.9 | 4.3 | 0.00 | 0.82 | 0.80 | 86 | 1010.0 |
| 20260506173116 | 56 | 273 | 0.9 | 2.6 | 0.00 | 0.82 | 0.80 | 85 | 1009.7 |
| 20260506171507 | 56 | 273 | 1.7 | 2.6 | 0.00 | 0.82 | 0.80 | 85 | 1009.6 |
| 20260506170103 | 56 | 273 | 1.7 | 3.5 | 0.00 | 0.82 | 0.80 | 85 | 1009.6 |
| 20260506164603 | 56 | 5 | 0.0 | 1.7 | 0.00 | 0.86 | 0.80 | 85 | 1009.6 |
| 20260506163002 | 56 | 247 | 0.9 | 3.5 | 0.00 | 0.86 | 0.80 | 83 | 1009.5 |
| 20260506161607 | 57 | 324 | 0.9 | 4.3 | 0.00 | 0.86 | 0.80 | 78 | 1009.4 |
| 20260506160002 | 57 | 25 | 2.6 | 6.1 | 0.00 | 0.93 | 0.80 | 80 | 1009.7 |
| 20260506154503 | 57 | 45 | 3.5 | 7.8 | 0.00 | 0.93 | 0.80 | 78 | 1009.9 |
| 20260506153103 | 59 | 16 | 4.3 | 8.7 | 0.00 | 0.93 | 0.80 | 76 | 1009.9 |
| 20260506151503 | 60 | 234 | 1.7 | 5.2 | 0.00 | 0.93 | 0.80 | 66 | 1009.8 |
| 20260506150108 | 61 | 17 | 0.9 | 6.1 | 0.00 | 0.93 | 0.80 | 69 | 1009.9 |
| 20260506144624 | 62 | 69 | 1.7 | 6.1 | 0.00 | 1.06 | 0.80 | 68 | 1009.9 |
| 20260506143012 | 62 | 5 | 3.5 | 7.8 | 0.00 | 1.06 | 0.80 | 65 | 1010.0 |
| 20260506141602 | 61 | 71 | 0.9 | 6.1 | 0.00 | 1.06 | 0.80 | 66 | 1010.0 |
| 20260506140007 | 61 | 28 | 2.6 | 6.1 | 0.00 | 1.06 | 0.80 | 63 | 1010.0 |
| 20260506134504 | 62 | 71 | 1.7 | 7.8 | 0.00 | 1.06 | 0.80 | 64 | 1010.1 |
| 20260506133102 | 61 | 199 | 0.9 | 4.3 | 0.00 | 1.06 | 0.80 | 68 | 1010.1 |
| 20260506131503 | 61 | 355 | 1.7 | 5.2 | 0.00 | 1.06 | 0.80 | 68 | 1010.1 |
| 20260506130140 | 0 | 46 | 0.0 | 1.7 | 0.00 | 1.06 | 0.80 | 1010.0 | |
| 20260506124604 | 0 | 113 | 0.0 | 0.9 | 0.00 | 1.06 | 0.80 | 1010.1 | |
| 20260506123003 | 0 | 182 | 0.0 | 2.6 | 0.00 | 1.06 | 0.80 | 1010.4 | |
| 20260506121604 | 0 | 216 | 0.0 | 2.6 | 0.00 | 1.06 | 0.80 | 1010.5 | |
| 20260506120003 | 0 | 5 | 0.0 | 4.3 | 0.00 | 1.06 | 0.80 | 1010.5 | |
| 20260506114502 | 0 | 22 | 2.6 | 4.3 | 0.00 | 1.06 | 0.80 | 1010.3 | |
| 20260506113108 | 0 | 306 | 0.0 | 6.1 | 0.00 | 1.06 | 0.80 | 1010.4 | |
| 20260506111502 | 0 | 98 | 4.3 | 7.8 | 0.00 | 1.06 | 0.80 | 1010.2 | |
| 20260506110105 | 0 | 290 | 1.7 | 5.2 | 0.00 | 1.06 | 0.80 | 1010.4 | |
| 20260506104541 | 0 | 15 | 0.0 | 4.3 | 0.00 | 1.06 | 0.80 | 1010.5 | |
| 20260506103037 | 0 | 52 | 3.5 | 6.1 | 0.00 | 1.06 | 0.80 | 1010.6 | |
| 20260506101547 | 0 | 37 | 0.9 | 3.5 | 0.00 | 1.06 | 0.80 | 1010.7 | |
| 20260506100031 | 57 | 206 | 0.0 | 3.5 | 0.00 | 1.06 | 0.80 | 78 | 1010.7 |
| 20260506094529 | 56 | 81 | 0.9 | 4.3 | 0.00 | 1.06 | 0.80 | 77 | 1010.7 |
| 20260506093024 | 55 | 61 | 0.0 | 3.5 | 0.00 | 1.06 | 0.80 | 80 | 1010.5 |
| 20260506091524 | 55 | 114 | 0.0 | 2.6 | 0.00 | 1.06 | 0.80 | 84 | 1010.4 |
| 20260506090021 | 54 | 94 | 0.0 | 4.3 | 0.00 | 1.06 | 0.80 | 88 | 1010.4 |
| 20260506084520 | 53 | 152 | 0.0 | 0.0 | 0.02 | 1.06 | 0.80 | 90 | 1010.3 |
| 20260506083014 | 52 | 152 | 0.0 | 1.7 | 0.02 | 1.06 | 0.80 | 92 | 1010.2 |
| 20260506081512 | 52 | 152 | 0.9 | 2.6 | 0.02 | 1.06 | 0.80 | 93 | 1010.0 |
| 20260506073100 | 51 | 180 | 0.9 | 3.5 | 0.00 | 1.28 | 0.78 | 93 | 1009.4 |
| 20260506071608 | 51 | 170 | 1.7 | 3.5 | 0.00 | 1.28 | 0.78 | 94 | 1009.2 |
| 20260506061550 | 50 | 228 | 1.7 | 4.3 | 0.00 | 1.55 | 0.78 | 94 | 1008.5 |